Time;durP1;ratioP1;P1;durP2;ratioP2;P2;SDS_P1;SDS_P2;PMS_P1;PMS_P2;Temp;Humidity;BMP_temperature;BMP_pressure;BME280_temperature;BME280_humidity;BME280_pressure;Samples;Min_cycle;Max_cycle;Signal;HPM_P1;HPM_P2
2022/11/01 00:00:19;;;;;;;8.53;3.43;;;16.10;99.90;;;;;;6190424;23;20160;-85
2022/11/01 00:02:45;;;;;;;11.23;2.83;;;16.10;99.90;;;;;;6190693;23;20188;-85
2022/11/01 00:05:11;;;;;;;7.10;3.20;;;16.10;99.90;;;;;;6216850;23;20630;-85
2022/11/01 00:07:36;;;;;;;9.30;3.00;;;16.20;99.90;;;;;;6190516;23;20162;-86
2022/11/01 00:10:03;;;;;;;9.20;2.87;;;16.20;99.90;;;;;;6190718;23;20185;-86
2022/11/01 00:12:31;;;;;;;5.03;2.73;;;16.20;99.90;;;;;;6190490;23;20152;-86
2022/11/01 00:14:57;;;;;;;5.63;2.37;;;16.30;99.90;;;;;;6190418;23;20176;-85
2022/11/01 00:17:23;;;;;;;13.00;3.60;;;16.30;99.90;;;;;;6190523;23;20191;-85
2022/11/01 00:19:48;;;;;;;7.43;2.97;;;16.40;99.90;;;;;;6190250;23;20164;-84
2022/11/01 00:22:14;;;;;;;8.30;2.93;;;16.50;99.90;;;;;;6190595;23;20192;-85
2022/11/01 00:24:39;;;;;;;6.33;2.77;;;16.30;99.90;;;;;;6190362;23;20191;-86
2022/11/01 00:27:05;;;;;;;6.80;2.90;;;16.40;99.90;;;;;;6190135;23;20656;-84
2022/11/01 00:29:30;;;;;;;7.43;2.60;;;16.50;99.90;;;;;;6216687;23;20152;-83
2022/11/01 00:31:56;;;;;;;5.60;2.60;;;16.30;99.90;;;;;;6190140;23;20160;-84
2022/11/01 00:34:22;;;;;;;8.60;3.07;;;16.40;99.90;;;;;;6189988;23;20182;-83
2022/11/01 00:36:47;;;;;;;4.70;2.67;;;16.50;99.90;;;;;;6191516;23;20602;-84
2022/11/01 00:39:14;;;;;;;7.93;3.10;;;16.40;99.90;;;;;;6190123;23;20293;-84
2022/11/01 00:41:40;;;;;;;8.57;3.20;;;16.60;99.90;;;;;;6216757;23;20166;-83
2022/11/01 00:44:05;;;;;;;6.27;3.20;;;16.50;99.90;;;;;;6189962;23;20262;-82
2022/11/01 00:46:31;;;;;;;4.03;2.73;;;17.20;99.90;;;;;;6189995;23;20337;-83
2022/11/01 00:48:57;;;;;;;7.13;2.80;;;16.70;99.90;;;;;;6190011;23;20152;-83
2022/11/01 00:51:23;;;;;;;12.50;3.00;;;16.60;99.90;;;;;;6190011;23;20239;-84
2022/11/01 00:53:48;;;;;;;7.13;2.80;;;16.50;99.90;;;;;;6189978;23;20176;-83
2022/11/01 00:56:14;;;;;;;6.07;2.77;;;16.40;99.90;;;;;;6189970;23;20172;-83
2022/11/01 00:58:39;;;;;;;5.67;2.50;;;16.50;99.90;;;;;;6189981;23;20160;-82
2022/11/01 01:01:05;;;;;;;7.03;2.90;;;16.80;99.90;;;;;;6190021;23;20167;-83
2022/11/01 01:03:31;;;;;;;7.67;2.63;;;16.80;99.90;;;;;;6190029;23;20199;-84
2022/11/01 01:05:57;;;;;;;9.33;2.80;;;16.60;99.90;;;;;;6190381;23;20176;-84
2022/11/01 01:08:23;;;;;;;6.10;2.83;;;16.50;99.90;;;;;;6190379;23;20157;-83
2022/11/01 01:10:48;;;;;;;9.17;2.70;;;16.60;99.90;;;;;;6190447;23;20156;-85
2022/11/01 01:13:14;;;;;;;5.83;2.63;;;16.60;99.90;;;;;;6190019;23;20253;-85
2022/11/01 01:15:40;;;;;;;4.40;2.90;;;17.30;99.90;;;;;;6190113;23;20165;-86
2022/11/01 01:18:06;;;;;;;6.37;2.90;;;16.90;99.90;;;;;;6189853;23;20214;-87
2022/11/01 01:20:32;;;;;;;8.30;2.90;;;17.10;99.90;;;;;;6216441;23;20163;-86
2022/11/01 01:22:58;;;;;;;8.67;2.90;;;16.60;99.90;;;;;;6189802;23;20161;-86
2022/11/01 01:25:23;;;;;;;5.10;2.50;;;16.70;99.90;;;;;;6189396;23;20200;-84
2022/11/01 01:27:49;;;;;;;5.03;2.70;;;16.50;99.90;;;;;;6189662;23;20171;-87
2022/11/01 01:30:15;;;;;;;3.67;2.50;;;16.80;99.90;;;;;;6189627;23;20211;-86
2022/11/01 01:32:41;;;;;;;6.57;2.70;;;16.60;99.90;;;;;;6216582;23;20149;-84
2022/11/01 01:35:07;;;;;;;7.47;2.40;;;17.40;99.90;;;;;;6189473;23;20194;-83
2022/11/01 01:37:33;;;;;;;7.33;2.83;;;16.50;99.90;;;;;;6191098;23;20590;-84
2022/11/01 01:39:59;;;;;;;4.47;2.70;;;16.60;99.90;;;;;;6190335;23;20229;-84
2022/11/01 01:42:30;;;;;;;7.77;2.77;;;16.50;99.90;;;;;;6189661;23;20160;-83
2022/11/01 01:44:56;;;;;;;6.93;2.70;;;16.80;99.90;;;;;;6189542;23;20188;-83
2022/11/01 01:47:33;;;;;;;5.27;2.43;;;17.00;99.90;;;;;;6189721;23;20160;-82
2022/11/01 01:50:29;;;;;;;5.50;2.60;;;16.60;99.90;;;;;;6189356;23;20479;-82
2022/11/01 01:53:04;;;;;;;5.17;2.60;;;16.80;99.90;;;;;;6216086;23;20189;-85
2022/11/01 01:55:44;;;;;;;6.30;2.53;;;16.40;99.90;;;;;;6189329;23;20184;-85
2022/11/01 01:58:12;;;;;;;6.80;2.70;;;16.40;99.90;;;;;;6189561;23;20214;-84
2022/11/01 02:00:38;;;;;;;6.77;2.97;;;16.40;99.90;;;;;;6189506;23;20250;-86
2022/11/01 02:03:04;;;;;;;7.03;3.20;;;16.30;99.90;;;;;;6189466;23;20187;-85
2022/11/01 02:05:35;;;;;;;8.73;2.30;;;16.50;99.90;;;;;;6215943;23;20188;-85
2022/11/01 02:08:03;;;;;;;4.10;2.73;;;16.20;99.90;;;;;;6189654;23;20534;-85
2022/11/01 02:10:30;;;;;;;5.23;2.77;;;16.30;99.90;;;;;;6216040;23;20152;-86
2022/11/01 02:12:56;;;;;;;4.43;2.90;;;16.30;99.90;;;;;;6189368;23;20603;-85
2022/11/01 02:15:27;;;;;;;10.60;3.17;;;16.20;99.90;;;;;;6215843;23;20178;-85
2022/11/01 02:18:36;;;;;;;4.13;2.43;;;16.90;99.90;;;;;;6189638;23;20159;-84
2022/11/01 02:21:34;;;;;;;5.50;2.43;;;16.20;99.90;;;;;;6196044;23;20160;-84
2022/11/01 02:24:27;;;;;;;4.67;2.47;;;16.20;99.90;;;;;;6189612;23;20183;-84
2022/11/01 02:27:14;;;;;;;4.63;2.50;;;16.20;99.90;;;;;;6189328;23;20184;-84
2022/11/01 02:30:00;;;;;;;5.20;2.30;;;16.20;99.90;;;;;;6190216;23;20163;-84
2022/11/01 02:32:57;;;;;;;8.93;2.83;;;16.20;99.90;;;;;;6190034;23;20199;-84
2022/11/01 02:35:46;;;;;;;5.03;2.80;;;16.20;99.90;;;;;;6189292;23;20191;-86
2022/11/01 02:38:25;;;;;;;7.40;3.03;;;16.20;99.90;;;;;;6189666;23;20486;-87
2022/11/01 02:41:16;;;;;;;4.47;2.50;;;16.10;99.90;;;;;;6189412;23;20166;-87
2022/11/01 02:44:00;;;;;;;7.20;2.53;;;16.10;99.90;;;;;;6191275;23;20183;-88
2022/11/01 02:49:17;;;;;;;4.10;2.40;;;16.10;99.90;;;;;;6218225;23;20278;-87
2022/11/01 02:51:44;;;;;;;7.87;2.50;;;16.20;99.90;;;;;;6191236;23;20168;-86
2022/11/01 02:54:20;;;;;;;5.30;2.87;;;16.10;99.90;;;;;;6191087;23;20667;-85
2022/11/01 02:56:46;;;;;;;4.97;2.77;;;16.10;99.90;;;;;;6191500;23;20471;-86
2022/11/01 02:59:18;;;;;;;7.33;2.80;;;16.10;99.90;;;;;;6191379;23;20202;-85
2022/11/01 03:01:54;;;;;;;9.23;2.80;;;16.10;99.90;;;;;;6190999;23;20149;-86
2022/11/01 03:04:20;;;;;;;6.67;2.23;;;16.10;99.90;;;;;;6190977;23;20187;-84
2022/11/01 03:06:51;;;;;;;9.57;2.43;;;16.10;99.90;;;;;;6190776;23;20179;-86
2022/11/01 03:09:17;;;;;;;8.00;2.50;;;16.10;99.90;;;;;;6190918;23;20152;-86
2022/11/01 03:11:59;;;;;;;7.40;2.70;;;16.10;99.90;;;;;;6191133;23;20203;-86
2022/11/01 03:14:42;;;;;;;10.73;2.93;;;16.10;99.90;;;;;;6191145;23;20208;-87
2022/11/01 03:17:19;;;;;;;6.47;2.20;;;16.10;99.90;;;;;;6190956;23;20163;-87
2022/11/01 03:19:44;;;;;;;5.97;2.30;;;16.10;99.90;;;;;;6191009;23;20211;-85
2022/11/01 03:22:35;;;;;;;3.73;2.37;;;16.10;99.90;;;;;;6190874;23;20547;-85
2022/11/01 03:25:38;;;;;;;6.03;2.80;;;16.20;99.90;;;;;;6190491;23;20204;-85
2022/11/01 03:27:58;;;;;;;8.20;3.00;;;16.10;99.90;;;;;;6217128;23;20157;-86
2022/11/01 03:30:26;;;;;;;4.27;2.77;;;16.20;99.90;;;;;;6191133;23;20598;-85
2022/11/01 03:32:55;;;;;;;5.57;2.43;;;16.20;99.90;;;;;;6217516;23;20182;-88
2022/11/01 03:35:25;;;;;;;4.50;2.57;;;16.10;99.90;;;;;;6190845;23;20184;-86
2022/11/01 03:37:54;;;;;;;6.80;2.73;;;16.10;99.90;;;;;;6190799;23;20160;-86
2022/11/01 03:40:23;;;;;;;9.83;2.87;;;16.90;99.90;;;;;;6190743;23;20172;-86
2022/11/01 03:42:52;;;;;;;5.37;2.93;;;16.20;99.90;;;;;;6190833;23;20172;-83
2022/11/01 03:45:23;;;;;;;3.63;2.30;;;16.30;99.90;;;;;;6190597;23;20188;-87
2022/11/01 03:47:49;;;;;;;4.40;2.23;;;16.20;99.90;;;;;;6191515;23;20156;-86
2022/11/01 03:50:26;;;;;;;7.30;2.37;;;16.40;99.90;;;;;;6190961;23;20472;-85
2022/11/01 03:52:52;;;;;;;5.57;2.40;;;16.20;99.90;;;;;;6190712;23;20189;-85
2022/11/01 03:55:20;;;;;;;4.67;2.30;;;16.20;99.90;;;;;;6190943;23;20179;-86
2022/11/01 03:57:57;;;;;;;4.33;2.07;;;16.30;99.90;;;;;;6190831;23;20168;-86
2022/11/01 04:00:29;;;;;;;7.90;2.87;;;16.30;99.90;;;;;;6193639;23;20160;-86
2022/11/01 04:02:56;;;;;;;7.10;2.30;;;16.70;99.90;;;;;;6205376;23;20167;-86
2022/11/01 04:05:23;;;;;;;3.20;2.00;;;16.30;99.90;;;;;;6201334;23;20192;-87
2022/11/01 04:07:50;;;;;;;5.03;2.20;;;16.30;99.90;;;;;;6200590;23;20160;-87
2022/11/01 04:10:16;;;;;;;3.77;1.90;;;16.90;99.90;;;;;;6199909;23;20182;-86
2022/11/01 04:12:47;;;;;;;9.27;2.40;;;16.20;99.90;;;;;;6191105;23;20157;-87
2022/11/01 04:21:08;;;;;;;4.17;2.33;;;16.20;99.90;;;;;;6218376;23;20152;-82
2022/11/01 04:23:33;;;;;;;6.70;2.70;;;16.30;99.90;;;;;;6190026;23;20164;-82
2022/11/01 04:25:59;;;;;;;5.83;2.43;;;16.30;99.90;;;;;;6189918;23;20219;-83
2022/11/01 04:28:25;;;;;;;8.90;2.20;;;16.50;99.90;;;;;;6190173;23;20156;-83
2022/11/01 04:30:50;;;;;;;4.60;2.00;;;16.10;99.90;;;;;;6190183;23;20204;-85
2022/11/01 04:33:16;;;;;;;5.67;2.70;;;16.40;99.90;;;;;;6190143;23;20153;-85
2022/11/01 04:35:42;;;;;;;5.50;2.33;;;16.30;99.90;;;;;;6190100;23;20596;-85
2022/11/01 04:38:10;;;;;;;5.63;2.53;;;16.20;99.90;;;;;;6190082;23;20167;-85
2022/11/01 04:40:35;;;;;;;7.60;2.67;;;16.80;99.90;;;;;;6189896;23;20164;-82
2022/11/01 04:43:01;;;;;;;7.33;2.50;;;16.40;99.90;;;;;;6189872;23;20186;-83
2022/11/01 04:45:27;;;;;;;7.53;2.37;;;16.60;99.90;;;;;;6189602;23;20192;-84
2022/11/01 04:48:04;;;;;;;10.63;2.63;;;16.30;99.90;;;;;;6189885;23;20198;-85
2022/11/01 04:50:30;;;;;;;2.93;1.73;;;16.30;99.90;;;;;;6189889;23;20230;-86
2022/11/01 04:52:58;;;;;;;5.50;2.27;;;16.30;99.90;;;;;;6189959;23;20156;-85
2022/11/01 04:55:24;;;;;;;8.70;3.33;;;16.50;99.90;;;;;;6189993;23;20184;-86
2022/11/01 04:57:50;;;;;;;5.10;2.23;;;16.20;99.90;;;;;;6189865;23;20167;-84
2022/11/01 05:00:16;;;;;;;3.30;2.00;;;16.30;99.90;;;;;;6190071;23;20157;-85
2022/11/01 05:02:41;;;;;;;6.13;2.43;;;16.20;99.90;;;;;;6190538;23;20164;-85
2022/11/01 05:05:11;;;;;;;4.90;2.30;;;16.20;99.90;;;;;;6189797;23;20528;-85
2022/11/01 05:07:37;;;;;;;6.40;2.30;;;16.10;99.90;;;;;;6190057;23;20156;-85
2022/11/01 05:10:04;;;;;;;5.13;1.80;;;16.10;99.90;;;;;;6216395;23;20163;-87
2022/11/01 05:12:29;;;;;;;6.00;2.07;;;16.20;99.90;;;;;;6189769;23;20160;-84
2022/11/01 05:14:55;;;;;;;3.87;1.87;;;16.00;99.90;;;;;;6190023;23;20509;-85
2022/11/01 05:17:20;;;;;;;4.60;1.63;;;16.40;99.90;;;;;;6191136;23;20602;-85
2022/11/01 05:19:46;;;;;;;6.10;1.73;;;16.20;99.90;;;;;;6189975;23;20157;-85
2022/11/01 05:22:11;;;;;;;4.37;1.87;;;16.60;99.90;;;;;;6189951;23;20184;-86
2022/11/01 05:24:37;;;;;;;7.30;2.10;;;16.20;99.90;;;;;;6216642;23;20180;-85
2022/11/01 05:27:03;;;;;;;4.23;1.70;;;16.20;99.90;;;;;;6189906;23;20160;-85
2022/11/01 05:29:29;;;;;;;3.50;1.90;;;16.20;99.90;;;;;;6189955;23;20472;-85
2022/11/01 05:31:54;;;;;;;3.90;1.70;;;16.10;99.90;;;;;;6189988;23;20179;-87
2022/11/01 05:34:20;;;;;;;2.20;1.17;;;16.10;99.90;;;;;;6189797;23;20172;-85
2022/11/01 05:36:45;;;;;;;2.73;1.33;;;16.20;99.90;;;;;;6189879;23;20164;-85
2022/11/01 05:39:11;;;;;;;8.07;1.73;;;16.10;99.90;;;;;;6190015;23;20239;-87
2022/11/01 05:41:37;;;;;;;3.27;1.33;;;16.20;99.90;;;;;;6189877;23;20599;-86
2022/11/01 05:44:02;;;;;;;4.70;1.43;;;16.40;99.90;;;;;;6189758;23;20182;-87
2022/11/01 05:46:28;;;;;;;2.93;1.50;;;16.20;99.90;;;;;;6189636;23;20188;-84
2022/11/01 05:48:54;;;;;;;2.57;1.10;;;15.90;99.90;;;;;;6190700;23;20156;-86
2022/11/01 05:51:20;;;;;;;5.80;1.37;;;15.80;99.90;;;;;;6189958;23;20160;-85
2022/11/01 05:53:49;;;;;;;3.43;1.33;;;15.70;99.90;;;;;;6189730;23;20255;-86
2022/11/01 05:56:15;;;;;;;4.83;1.27;;;15.60;99.90;;;;;;6189882;23;20160;-87
2022/11/01 05:58:41;;;;;;;6.40;1.03;;;15.50;99.90;;;;;;6189834;23;20160;-84
2022/11/01 06:01:07;;;;;;;2.13;1.00;;;15.40;99.90;;;;;;6189934;23;20266;-86
2022/11/01 06:03:33;;;;;;;1.77;0.90;;;15.30;99.90;;;;;;6189880;23;20199;-86
2022/11/01 06:05:59;;;;;;;3.60;1.03;;;15.20;99.90;;;;;;6216077;23;20191;-83
2022/11/01 06:08:25;;;;;;;3.60;1.10;;;15.00;99.90;;;;;;6216050;23;20159;-83
2022/11/01 06:10:51;;;;;;;5.67;0.80;;;15.00;99.90;;;;;;6189509;23;20555;-82
2022/11/01 06:13:17;;;;;;;4.27;1.13;;;14.90;99.90;;;;;;6189258;23;20163;-84
2022/11/01 06:15:43;;;;;;;3.93;0.87;;;14.80;99.90;;;;;;6189869;23;20247;-83
2022/11/01 06:18:09;;;;;;;3.13;1.00;;;14.70;99.90;;;;;;6191383;23;20191;-85
2022/11/01 06:20:38;;;;;;;2.20;1.47;;;14.60;99.90;;;;;;6191449;23;20509;-87
2022/11/01 06:23:08;;;;;;;2.83;0.80;;;14.40;99.90;;;;;;6217997;23;20152;-87
2022/11/01 06:25:35;;;;;;;2.30;0.60;;;14.40;99.90;;;;;;6191089;23;20198;-86
2022/11/01 06:28:01;;;;;;;2.07;0.80;;;14.40;99.90;;;;;;6191531;23;20210;-86
2022/11/01 06:30:26;;;;;;;3.70;1.00;;;14.30;99.90;;;;;;6218227;23;20159;-85
2022/11/01 06:32:58;;;;;;;2.63;0.80;;;14.10;99.90;;;;;;6191354;23;20594;-86
2022/11/01 06:35:26;;;;;;;3.67;0.93;;;14.10;99.90;;;;;;6217776;23;20219;-87
2022/11/01 06:37:52;;;;;;;4.30;0.60;;;13.90;99.90;;;;;;6191327;23;20546;-86
2022/11/01 06:40:18;;;;;;;5.33;1.20;;;13.90;99.90;;;;;;6192379;23;20188;-86
2022/11/01 06:42:43;;;;;;;4.53;1.00;;;13.90;99.90;;;;;;6191586;23;20160;-86
2022/11/01 06:45:09;;;;;;;3.37;1.00;;;14.30;99.90;;;;;;6191500;23;20585;-86
2022/11/01 06:47:34;;;;;;;2.20;0.70;;;13.70;99.90;;;;;;6191385;23;20199;-85
2022/11/01 06:50:00;;;;;;;3.03;0.70;;;14.00;99.90;;;;;;6217875;23;20578;-84
2022/11/01 06:52:25;;;;;;;4.60;1.00;;;14.10;99.90;;;;;;6191425;23;20158;-85
2022/11/01 06:54:51;;;;;;;5.50;0.80;;;13.60;99.90;;;;;;6191217;23;20172;-86
2022/11/01 06:57:17;;;;;;;6.07;1.00;;;13.60;99.90;;;;;;6191202;23;20159;-85
2022/11/01 06:59:42;;;;;;;6.90;1.00;;;13.80;99.90;;;;;;6192467;23;20160;-86
2022/11/01 07:02:09;;;;;;;3.50;0.70;;;13.60;99.90;;;;;;6191213;23;20495;-85
2022/11/01 07:04:35;;;;;;;3.73;0.83;;;13.50;99.90;;;;;;6190847;23;20214;-86
2022/11/01 07:07:01;;;;;;;3.87;0.80;;;13.50;99.90;;;;;;6190803;23;20526;-85
2022/11/01 07:09:27;;;;;;;1.03;0.50;;;13.50;99.90;;;;;;6191781;23;20157;-85
2022/11/01 07:11:52;;;;;;;2.93;0.97;;;13.60;99.90;;;;;;6217261;23;20180;-84
2022/11/01 07:14:18;;;;;;;2.57;0.80;;;13.50;99.90;;;;;;6217317;23;20238;-84
2022/11/01 07:16:43;;;;;;;1.63;0.80;;;13.50;99.90;;;;;;6190782;23;20183;-87
2022/11/01 07:19:09;;;;;;;4.07;0.80;;;13.50;99.90;;;;;;6217220;23;20164;-88
2022/11/01 07:21:34;;;;;;;1.37;0.50;;;13.40;99.90;;;;;;6190825;23;20166;-87
2022/11/01 07:24:00;;;;;;;2.53;1.00;;;13.40;99.90;;;;;;6217462;23;20224;-88
2022/11/01 07:26:25;;;;;;;1.47;0.70;;;13.30;99.90;;;;;;6190620;23;20234;-86
2022/11/01 07:28:51;;;;;;;5.07;0.93;;;13.40;99.90;;;;;;6190234;23;20489;-87
2022/11/01 07:31:16;;;;;;;1.80;0.67;;;13.30;99.90;;;;;;6191083;23;20164;-86
2022/11/01 07:33:42;;;;;;;3.23;0.90;;;13.30;99.90;;;;;;6190670;23;20563;-86
2022/11/01 07:36:08;;;;;;;4.87;1.00;;;13.30;99.90;;;;;;6190703;23;20190;-85
2022/11/01 07:38:33;;;;;;;9.33;1.20;;;13.30;99.90;;;;;;6190656;23;20195;-85
2022/11/01 07:40:59;;;;;;;3.40;1.07;;;13.30;99.90;;;;;;6190639;23;20243;-87
2022/11/01 07:43:24;;;;;;;5.60;1.20;;;13.30;99.90;;;;;;6190721;23;20164;-88
2022/11/01 07:45:50;;;;;;;5.70;1.23;;;13.30;99.90;;;;;;6190530;23;20216;-85
2022/11/01 07:48:17;;;;;;;7.77;1.47;;;13.30;99.90;;;;;;6190744;23;20242;-87
2022/11/01 07:50:44;;;;;;;7.27;1.00;;;13.30;99.90;;;;;;6190675;23;20192;-89
2022/11/01 07:53:16;;;;;;;10.97;1.50;;;13.30;99.90;;;;;;6217125;23;20149;-86
2022/11/01 07:55:42;;;;;;;5.13;1.30;;;13.30;99.90;;;;;;6190728;23;20610;-86
2022/11/01 07:58:10;;;;;;;7.63;1.60;;;13.30;99.90;;;;;;6190606;23;20603;-86
2022/11/01 08:00:36;;;;;;;12.37;2.00;;;13.30;99.90;;;;;;6190509;23;20599;-86
2022/11/01 08:03:04;;;;;;;7.93;1.23;;;13.30;99.90;;;;;;6190674;23;20606;-86
2022/11/01 08:05:30;;;;;;;5.43;1.00;;;13.30;99.90;;;;;;6190373;23;20280;-85
2022/11/01 08:07:56;;;;;;;9.87;1.50;;;13.60;99.90;;;;;;6190656;23;20236;-85
2022/11/01 08:10:22;;;;;;;6.77;1.27;;;13.40;99.90;;;;;;6190321;23;20209;-86
2022/11/01 08:12:48;;;;;;;6.77;1.37;;;13.40;99.90;;;;;;6190579;23;20164;-86
2022/11/01 08:15:13;;;;;;;9.00;1.27;;;13.40;99.90;;;;;;6193847;23;20259;-87
2022/11/01 08:17:39;;;;;;;5.50;1.23;;;13.40;99.90;;;;;;6217282;23;20203;-86
2022/11/01 08:20:05;;;;;;;8.70;1.20;;;13.60;99.90;;;;;;6190402;23;20153;-85
2022/11/01 08:22:31;;;;;;;6.90;1.23;;;13.50;99.90;;;;;;6190656;23;20164;-87
2022/11/01 08:24:57;;;;;;;5.43;1.40;;;13.80;99.90;;;;;;6190185;23;20675;-85
2022/11/01 08:27:23;;;;;;;8.03;1.73;;;13.50;99.90;;;;;;6190486;23;20156;-85
2022/11/01 08:29:48;;;;;;;12.40;1.50;;;13.60;99.90;;;;;;6190399;23;20157;-86
2022/11/01 08:32:17;;;;;;;8.93;1.40;;;13.60;99.90;;;;;;6190476;23;20163;-85
2022/11/01 08:34:43;;;;;;;5.97;1.33;;;13.70;99.90;;;;;;6216675;23;20168;-85
2022/11/01 08:37:08;;;;;;;8.17;1.57;;;13.70;99.90;;;;;;6190361;23;20190;-85
2022/11/01 08:39:34;;;;;;;6.60;1.57;;;13.80;99.90;;;;;;6190042;23;20634;-87
2022/11/01 08:41:59;;;;;;;4.53;1.03;;;14.70;99.90;;;;;;6190209;23;20609;-86
2022/11/01 08:44:25;;;;;;;5.63;0.80;;;13.90;99.90;;;;;;6190152;23;20181;-86
2022/11/01 08:46:53;;;;;;;5.33;1.00;;;13.90;99.90;;;;;;6190072;23;20180;-86
2022/11/01 08:49:19;;;;;;;6.00;1.30;;;14.00;99.90;;;;;;6190009;23;20168;-85
2022/11/01 08:51:44;;;;;;;3.27;1.07;;;14.10;99.90;;;;;;6189784;23;20161;-85
2022/11/01 08:54:11;;;;;;;5.83;1.20;;;14.10;99.90;;;;;;6190044;23;20513;-86
2022/11/01 08:56:36;;;;;;;4.07;1.10;;;14.10;99.90;;;;;;6190154;23;20240;-86
2022/11/01 08:59:02;;;;;;;7.07;1.30;;;14.20;99.90;;;;;;6189974;23;20611;-85
2022/11/01 09:01:27;;;;;;;7.73;1.33;;;14.20;99.90;;;;;;6190102;23;20199;-87
2022/11/01 09:03:57;;;;;;;7.00;1.10;;;14.40;99.90;;;;;;6189862;23;20645;-87
2022/11/01 09:06:23;;;;;;;5.27;1.13;;;14.40;99.90;;;;;;6189826;23;20193;-85
2022/11/01 09:08:49;;;;;;;7.27;1.00;;;14.40;99.90;;;;;;6190111;23;20197;-86
2022/11/01 09:11:15;;;;;;;8.47;1.30;;;14.50;99.90;;;;;;6189716;23;20163;-87
2022/11/01 09:13:41;;;;;;;5.50;1.10;;;14.50;99.90;;;;;;6189934;23;20179;-85
2022/11/01 09:16:07;;;;;;;5.47;1.10;;;14.60;99.90;;;;;;6189841;23;20617;-86
2022/11/01 09:18:33;;;;;;;3.60;0.97;;;14.60;99.90;;;;;;6189834;23;20161;-86
2022/11/01 09:20:58;;;;;;;3.97;1.03;;;14.80;99.90;;;;;;6189851;23;20348;-85
2022/11/01 09:23:24;;;;;;;4.97;1.20;;;14.70;99.90;;;;;;6189491;23;20590;-86
2022/11/01 09:25:50;;;;;;;3.33;0.90;;;15.00;99.90;;;;;;6189577;23;20194;-85
2022/11/01 09:28:15;;;;;;;5.67;1.10;;;15.10;99.90;;;;;;6189884;23;20618;-85
2022/11/01 09:30:41;;;;;;;7.63;1.00;;;14.90;99.90;;;;;;6189958;23;20164;-88
2022/11/01 09:33:06;;;;;;;6.47;1.23;;;14.90;99.90;;;;;;6189994;23;20166;-85
2022/11/01 09:35:33;;;;;;;7.73;1.70;;;15.20;99.90;;;;;;6191252;23;20555;-86
2022/11/01 09:38:00;;;;;;;5.80;1.67;;;15.10;99.90;;;;;;6190047;23;20216;-86
2022/11/01 09:40:42;;;;;;;5.80;1.33;;;15.10;99.90;;;;;;6189637;23;20160;-86
2022/11/01 09:43:14;;;;;;;6.33;1.67;;;15.20;99.90;;;;;;6189745;23;20187;-85
2022/11/01 09:45:40;;;;;;;7.13;1.50;;;15.30;99.90;;;;;;6190528;23;20270;-85
2022/11/01 09:48:06;;;;;;;7.80;1.43;;;15.30;99.90;;;;;;6189546;23;20179;-85
2022/11/01 09:50:36;;;;;;;9.73;2.10;;;15.40;99.90;;;;;;6189591;23;20243;-85
2022/11/01 09:53:06;;;;;;;8.67;1.50;;;15.70;99.90;;;;;;6189169;23;20192;-85
2022/11/01 09:56:03;;;;;;;6.80;1.43;;;15.50;99.90;;;;;;6189429;23;20229;-87
2022/11/01 09:59:00;;;;;;;11.00;1.50;;;15.50;99.90;;;;;;6216086;23;20582;-87
2022/11/01 10:01:25;;;;;;;10.20;1.70;;;15.60;99.90;;;;;;6189337;23;20215;-86
2022/11/01 10:04:40;;;;;;;5.67;1.63;;;15.70;99.90;;;;;;6189197;23;20554;-86
2022/11/01 10:07:15;;;;;;;9.20;1.23;;;15.70;99.90;;;;;;6103344;23;20191;-87
2022/11/01 10:09:54;;;;;;;8.60;1.47;;;15.70;99.90;;;;;;6189662;23;20176;-85
2022/11/01 10:12:27;;;;;;;6.17;1.23;;;15.80;99.90;;;;;;6189482;23;20159;-84
2022/11/01 10:15:13;;;;;;;8.70;1.63;;;15.80;99.90;;;;;;6189510;23;20187;-86
2022/11/01 10:17:49;;;;;;;8.43;1.40;;;15.80;99.90;;;;;;6189576;23;20156;-85
2022/11/01 10:20:16;;;;;;;4.67;1.40;;;15.90;99.90;;;;;;6189736;23;20484;-85
2022/11/01 10:22:46;;;;;;;8.23;1.77;;;15.90;99.90;;;;;;6189628;23;20226;-86
2022/11/01 10:25:30;;;;;;;8.07;1.30;;;16.50;99.90;;;;;;6189125;23;20219;-85
2022/11/01 10:28:19;;;;;;;6.23;1.80;;;16.00;99.90;;;;;;6189668;23;20166;-85
2022/11/01 10:30:55;;;;;;;7.70;1.60;;;16.00;99.90;;;;;;6189513;23;20149;-85
2022/11/01 10:33:40;;;;;;;6.17;1.47;;;16.10;99.90;;;;;;6189406;23;20183;-85
2022/11/01 10:36:17;;;;;;;7.40;1.27;;;16.20;99.90;;;;;;6189313;23;20621;-86
2022/11/01 10:38:49;;;;;;;3.67;1.40;;;16.20;99.90;;;;;;6189516;23;20182;-85
2022/11/01 10:41:28;;;;;;;7.80;1.60;;;16.20;99.90;;;;;;6189210;23;20187;-85
2022/11/01 10:44:01;;;;;;;6.80;1.30;;;16.20;99.90;;;;;;6190081;23;20184;-85
2022/11/01 10:46:41;;;;;;;7.80;1.33;;;16.30;99.90;;;;;;6189245;23;20618;-85
2022/11/01 10:49:18;;;;;;;5.27;1.30;;;16.30;99.90;;;;;;6189385;23;20172;-87
2022/11/01 10:51:45;;;;;;;5.60;1.60;;;16.70;99.90;;;;;;6189372;23;20141;-85
2022/11/01 10:54:18;;;;;;;11.77;1.80;;;16.40;99.90;;;;;;6189135;23;20211;-86
2022/11/01 10:56:46;;;;;;;8.07;1.73;;;16.80;99.90;;;;;;6189271;23;20152;-85
2022/11/01 10:59:19;;;;;;;8.23;1.93;;;16.50;99.90;;;;;;6215828;23;20591;-85
2022/11/01 11:01:45;;;;;;;8.93;1.80;;;16.50;99.90;;;;;;6189425;23;20498;-85
2022/11/01 11:04:14;;;;;;;9.70;1.90;;;16.50;99.90;;;;;;6190527;23;20184;-86
2022/11/01 11:06:41;;;;;;;4.50;1.07;;;16.90;99.90;;;;;;6190988;23;20529;-85
2022/11/01 11:09:31;;;;;;;9.90;2.00;;;16.60;99.90;;;;;;6191161;23;20499;-86
2022/11/01 11:12:00;;;;;;;7.27;1.73;;;16.50;99.90;;;;;;6190852;23;20211;-84
2022/11/01 11:14:30;;;;;;;12.07;2.20;;;16.60;99.90;;;;;;6191676;23;20176;-84
2022/11/01 11:16:56;;;;;;;9.40;1.53;;;16.70;99.90;;;;;;6191262;23;20164;-85
2022/11/01 11:19:28;;;;;;;10.60;1.80;;;16.70;99.90;;;;;;6190839;23;20168;-86
2022/11/01 11:21:55;;;;;;;8.53;1.60;;;16.70;99.90;;;;;;6190733;23;20162;-85
2022/11/01 11:24:30;;;;;;;7.10;1.67;;;16.80;99.90;;;;;;6191187;23;20179;-85
2022/11/01 11:26:56;;;;;;;7.37;1.70;;;16.80;99.90;;;;;;6190876;23;20245;-84
2022/11/01 11:29:38;;;;;;;8.13;1.63;;;16.80;99.90;;;;;;6191236;23;20156;-85
2022/11/01 11:32:13;;;;;;;7.53;1.90;;;16.90;99.90;;;;;;6217647;23;20132;-86
2022/11/01 11:34:40;;;;;;;8.57;1.90;;;16.80;99.90;;;;;;6191723;23;20491;-87
2022/11/01 11:37:13;;;;;;;6.23;1.53;;;17.00;99.90;;;;;;6200138;23;20161;-86
2022/11/01 11:39:40;;;;;;;11.97;1.77;;;17.00;99.90;;;;;;6203557;23;20172;-87
2022/11/01 11:42:17;;;;;;;3.87;1.50;;;16.70;99.90;;;;;;6200199;23;20602;-87
2022/11/01 11:44:44;;;;;;;5.33;1.47;;;16.80;99.90;;;;;;6199691;23;20176;-87
2022/11/01 11:47:36;;;;;;;7.97;1.90;;;17.00;99.90;;;;;;6196479;23;20185;-85
2022/11/01 11:50:27;;;;;;;6.17;1.50;;;17.00;99.90;;;;;;6185380;23;20156;-85
2022/11/01 11:53:02;;;;;;;10.10;1.80;;;17.00;99.90;;;;;;6174490;23;20524;-85
2022/11/01 11:55:38;;;;;;;6.00;1.53;;;17.00;99.90;;;;;;6190950;23;20214;-86
2022/11/01 11:58:14;;;;;;;6.20;1.93;;;17.10;99.90;;;;;;6217575;23;20213;-86
2022/11/01 12:00:45;;;;;;;4.00;1.23;;;17.10;99.90;;;;;;6217687;23;20140;-86
2022/11/01 12:03:13;;;;;;;6.63;1.40;;;17.10;99.90;;;;;;6191055;23;20230;-85
2022/11/01 12:05:51;;;;;;;11.30;2.00;;;17.20;99.90;;;;;;6189173;23;20199;-85
2022/11/01 12:08:44;;;;;;;9.13;1.80;;;17.20;99.90;;;;;;6190186;23;20148;-86
2022/11/01 12:11:11;;;;;;;8.77;1.70;;;17.20;99.90;;;;;;6190591;23;20151;-86
2022/11/01 12:13:41;;;;;;;8.20;2.23;;;17.20;99.90;;;;;;6190553;23;20160;-85
2022/11/01 12:16:20;;;;;;;8.53;1.57;;;17.60;99.90;;;;;;6215001;23;20152;-84
2022/11/01 12:18:56;;;;;;;9.87;1.77;;;17.30;99.90;;;;;;6189934;23;20529;-85
2022/11/01 12:21:26;;;;;;;8.97;1.67;;;17.30;99.90;;;;;;6189544;23;20159;-87
2022/11/01 12:24:30;;;;;;;8.80;1.97;;;17.40;99.90;;;;;;6189267;23;20263;-85
2022/11/01 12:27:01;;;;;;;6.53;1.37;;;17.40;99.90;;;;;;6137758;23;20278;-86
2022/11/01 12:29:38;;;;;;;4.73;1.23;;;17.40;99.90;;;;;;6215908;23;20156;-85
2022/11/01 12:32:13;;;;;;;4.70;1.20;;;17.30;99.90;;;;;;6190249;23;20167;-84
2022/11/01 12:34:41;;;;;;;5.50;1.20;;;17.30;99.90;;;;;;6190384;23;20662;-86
2022/11/01 12:37:17;;;;;;;7.47;1.60;;;17.40;99.90;;;;;;6190643;23;20250;-86
2022/11/01 12:39:49;;;;;;;8.17;1.50;;;17.40;99.90;;;;;;6190469;23;20227;-85
2022/11/01 12:42:29;;;;;;;4.43;1.30;;;17.40;99.90;;;;;;6190341;23;20144;-86
2022/11/01 12:45:17;;;;;;;5.53;1.33;;;17.50;99.90;;;;;;6190245;23;20259;-85
2022/11/01 12:47:47;;;;;;;8.63;1.60;;;17.50;99.90;;;;;;6190327;23;20239;-85
2022/11/01 12:50:32;;;;;;;8.33;1.77;;;17.40;99.90;;;;;;6191273;23;20444;-87
2022/11/01 12:53:11;;;;;;;9.53;1.77;;;17.40;99.90;;;;;;6217905;23;20219;-84
2022/11/01 12:55:38;;;;;;;5.10;1.23;;;17.50;99.90;;;;;;6192257;23;20176;-85
2022/11/01 12:58:09;;;;;;;7.83;1.27;;;17.50;99.90;;;;;;6190051;23;20160;-86
2022/11/01 13:01:07;;;;;;;7.60;1.63;;;17.50;99.90;;;;;;6190270;23;20214;-85
2022/11/01 13:04:01;;;;;;;6.97;2.17;;;17.50;99.90;;;;;;6189772;23;20535;-85
2022/11/01 13:06:54;;;;;;;7.10;1.30;;;17.50;99.90;;;;;;6189797;23;20569;-85
2022/11/01 13:09:33;;;;;;;8.03;1.70;;;17.50;99.90;;;;;;6189679;23;20152;-86